sensor_id;sensor_type;location;lat;lon;timestamp;pressure;altitude;pressure_sealevel;temperature;humidity
63500;BME280;49654;51.142;14.924;2024-03-08T00:00:19;99822.75;;;-0.60;73.45
63500;BME280;49654;51.142;14.924;2024-03-08T00:02:46;99817.53;;;-0.72;74.80
63500;BME280;49654;51.142;14.924;2024-03-08T00:05:14;99815.72;;;-0.70;74.50
63500;BME280;49654;51.142;14.924;2024-03-08T00:07:41;99815.44;;;-0.66;74.52
63500;BME280;49654;51.142;14.924;2024-03-08T00:10:10;99808.06;;;-0.70;74.42
63500;BME280;49654;51.142;14.924;2024-03-08T00:12:37;99807.63;;;-0.63;74.27
63500;BME280;49654;51.142;14.924;2024-03-08T00:15:08;99804.03;;;-0.74;73.66
63500;BME280;49654;51.142;14.924;2024-03-08T00:17:36;99814.66;;;-0.82;73.60
63500;BME280;49654;51.142;14.924;2024-03-08T00:20:04;99811.47;;;-0.86;74.68
63500;BME280;49654;51.142;14.924;2024-03-08T00:22:34;99799.59;;;-1.01;75.01
63500;BME280;49654;51.142;14.924;2024-03-08T00:25:01;99812.13;;;-0.82;75.59
63500;BME280;49654;51.142;14.924;2024-03-08T00:27:29;99805.47;;;-0.85;75.48
63500;BME280;49654;51.142;14.924;2024-03-08T00:29:57;99804.19;;;-0.78;75.03
63500;BME280;49654;51.142;14.924;2024-03-08T00:32:23;99804.81;;;-0.88;74.33
63500;BME280;49654;51.142;14.924;2024-03-08T00:34:52;99786.69;;;-1.14;75.28
63500;BME280;49654;51.142;14.924;2024-03-08T00:37:20;99805.16;;;-0.94;75.97
63500;BME280;49654;51.142;14.924;2024-03-08T00:39:47;99799.22;;;-0.95;75.44
63500;BME280;49654;51.142;14.924;2024-03-08T00:42:15;99803.09;;;-0.88;75.13
63500;BME280;49654;51.142;14.924;2024-03-08T00:44:42;99805.47;;;-0.85;74.56
63500;BME280;49654;51.142;14.924;2024-03-08T00:47:09;99804.16;;;-0.92;73.81
63500;BME280;49654;51.142;14.924;2024-03-08T00:49:36;99806.88;;;-0.95;74.05
63500;BME280;49654;51.142;14.924;2024-03-08T00:52:05;99799.91;;;-1.07;74.30
63500;BME280;49654;51.142;14.924;2024-03-08T00:54:34;99791.91;;;-1.15;75.52
63500;BME280;49654;51.142;14.924;2024-03-08T00:57:01;99794.66;;;-1.04;75.20
63500;BME280;49654;51.142;14.924;2024-03-08T00:59:29;99791.59;;;-0.95;75.39
63500;BME280;49654;51.142;14.924;2024-03-08T01:01:58;99790.75;;;-0.95;75.06
63500;BME280;49654;51.142;14.924;2024-03-08T01:04:26;99786.94;;;-1.03;75.38
63500;BME280;49654;51.142;14.924;2024-03-08T01:06:54;99782.81;;;-1.05;75.21
63500;BME280;49654;51.142;14.924;2024-03-08T01:09:23;99711.19;;;-1.46;75.47
63500;BME280;49654;51.142;14.924;2024-03-08T01:11:50;99777.19;;;-0.96;75.55
63500;BME280;49654;51.142;14.924;2024-03-08T01:14:20;99722.94;;;-1.28;75.34
63500;BME280;49654;51.142;14.924;2024-03-08T01:16:48;99760.94;;;-1.09;75.79
63500;BME280;49654;51.142;14.924;2024-03-08T01:19:15;99763.53;;;-0.95;74.63
63500;BME280;49654;51.142;14.924;2024-03-08T01:21:42;99772.19;;;-0.97;74.70
63500;BME280;49654;51.142;14.924;2024-03-08T01:24:09;99767.53;;;-1.05;75.38
63500;BME280;49654;51.142;14.924;2024-03-08T01:26:37;99767.44;;;-1.04;74.92
63500;BME280;49654;51.142;14.924;2024-03-08T01:29:04;99760.09;;;-1.24;74.99
63500;BME280;49654;51.142;14.924;2024-03-08T01:31:31;99755.41;;;-1.32;75.73
63500;BME280;49654;51.142;14.924;2024-03-08T01:33:58;99762.94;;;-1.14;75.24
63500;BME280;49654;51.142;14.924;2024-03-08T01:36:25;99757.59;;;-1.10;75.27
63500;BME280;49654;51.142;14.924;2024-03-08T01:38:52;99758.09;;;-1.19;75.66
63500;BME280;49654;51.142;14.924;2024-03-08T01:41:19;99757.03;;;-1.31;76.05
63500;BME280;49654;51.142;14.924;2024-03-08T01:43:47;99756.53;;;-1.21;75.50
63500;BME280;49654;51.142;14.924;2024-03-08T01:46:18;99757.84;;;-1.14;75.10
63500;BME280;49654;51.142;14.924;2024-03-08T01:48:47;99730.41;;;-1.25;74.34
63500;BME280;49654;51.142;14.924;2024-03-08T01:51:16;99695.63;;;-1.56;74.87
63500;BME280;49654;51.142;14.924;2024-03-08T01:53:45;99745.13;;;-1.30;75.01
63500;BME280;49654;51.142;14.924;2024-03-08T01:56:13;99745.53;;;-1.22;74.21
63500;BME280;49654;51.142;14.924;2024-03-08T01:58:40;99727.50;;;-1.49;74.33
63500;BME280;49654;51.142;14.924;2024-03-08T02:01:11;99673.06;;;-1.78;75.25
63500;BME280;49654;51.142;14.924;2024-03-08T02:03:38;99743.22;;;-1.27;74.82
63500;BME280;49654;51.142;14.924;2024-03-08T02:06:05;99740.13;;;-1.32;75.13
63500;BME280;49654;51.142;14.924;2024-03-08T02:08:35;99745.38;;;-1.19;74.96
63500;BME280;49654;51.142;14.924;2024-03-08T02:11:03;99698.81;;;-1.53;74.93
63500;BME280;49654;51.142;14.924;2024-03-08T02:13:30;99740.59;;;-1.25;75.32
63500;BME280;49654;51.142;14.924;2024-03-08T02:15:58;99736.91;;;-1.19;75.00
63500;BME280;49654;51.142;14.924;2024-03-08T02:18:28;99738.13;;;-1.27;75.11
63500;BME280;49654;51.142;14.924;2024-03-08T02:20:58;99734.94;;;-1.30;75.69
63500;BME280;49654;51.142;14.924;2024-03-08T02:23:26;99738.13;;;-1.27;75.73
63500;BME280;49654;51.142;14.924;2024-03-08T02:25:54;99727.38;;;-1.32;75.89
63500;BME280;49654;51.142;14.924;2024-03-08T02:28:22;99711.59;;;-1.38;75.71
63500;BME280;49654;51.142;14.924;2024-03-08T02:30:51;99708.06;;;-1.36;75.41
63500;BME280;49654;51.142;14.924;2024-03-08T02:33:20;99724.66;;;-1.29;75.48
63500;BME280;49654;51.142;14.924;2024-03-08T02:35:47;99728.47;;;-1.36;75.82
63500;BME280;49654;51.142;14.924;2024-03-08T02:38:17;99730.59;;;-1.44;76.08
63500;BME280;49654;51.142;14.924;2024-03-08T02:40:45;99729.28;;;-1.51;76.52
63500;BME280;49654;51.142;14.924;2024-03-08T02:43:13;99723.06;;;-1.61;76.81
63500;BME280;49654;51.142;14.924;2024-03-08T02:45:41;99713.84;;;-1.64;76.67
63500;BME280;49654;51.142;14.924;2024-03-08T02:48:09;99723.56;;;-1.70;77.00
63500;BME280;49654;51.142;14.924;2024-03-08T02:50:36;99719.28;;;-1.54;76.45
63500;BME280;49654;51.142;14.924;2024-03-08T02:53:05;99721.59;;;-1.65;75.75
63500;BME280;49654;51.142;14.924;2024-03-08T02:55:34;99715.38;;;-1.75;76.75
63500;BME280;49654;51.142;14.924;2024-03-08T02:58:02;99718.13;;;-1.64;76.48
63500;BME280;49654;51.142;14.924;2024-03-08T03:00:30;99719.75;;;-1.63;76.65
63500;BME280;49654;51.142;14.924;2024-03-08T03:02:58;99698.09;;;-1.70;76.34
63500;BME280;49654;51.142;14.924;2024-03-08T03:05:25;99717.97;;;-1.45;75.23
63500;BME280;49654;51.142;14.924;2024-03-08T03:07:52;99716.78;;;-1.40;74.60
63500;BME280;49654;51.142;14.924;2024-03-08T03:10:19;99678.47;;;-1.68;74.47
63500;BME280;49654;51.142;14.924;2024-03-08T03:12:49;99716.50;;;-1.49;74.97
63500;BME280;49654;51.142;14.924;2024-03-08T03:15:16;99711.72;;;-1.56;75.27
63500;BME280;49654;51.142;14.924;2024-03-08T03:17:45;99701.22;;;-1.65;75.57
63500;BME280;49654;51.142;14.924;2024-03-08T03:20:13;99717.38;;;-1.51;75.42
63500;BME280;49654;51.142;14.924;2024-03-08T03:22:40;99711.66;;;-1.54;75.77
63500;BME280;49654;51.142;14.924;2024-03-08T03:25:08;99707.53;;;-1.57;75.92
63500;BME280;49654;51.142;14.924;2024-03-08T03:27:35;99704.47;;;-1.47;75.34
63500;BME280;49654;51.142;14.924;2024-03-08T03:30:05;99699.22;;;-1.44;75.30
63500;BME280;49654;51.142;14.924;2024-03-08T03:32:46;99695.25;;;-1.50;75.71
63500;BME280;49654;51.142;14.924;2024-03-08T03:35:14;99703.66;;;-1.48;75.50
63500;BME280;49654;51.142;14.924;2024-03-08T03:37:41;99695.91;;;-1.46;75.38
63500;BME280;49654;51.142;14.924;2024-03-08T03:40:12;99641.38;;;-1.88;75.45
63500;BME280;49654;51.142;14.924;2024-03-08T03:42:39;99701.47;;;-1.54;75.77
63500;BME280;49654;51.142;14.924;2024-03-08T03:45:08;99696.09;;;-1.49;75.34
63500;BME280;49654;51.142;14.924;2024-03-08T03:47:35;99706.31;;;-1.49;75.44
63500;BME280;49654;51.142;14.924;2024-03-08T03:50:05;99699.72;;;-1.54;75.35
63500;BME280;49654;51.142;14.924;2024-03-08T03:52:32;99700.88;;;-1.59;75.51
63500;BME280;49654;51.142;14.924;2024-03-08T03:54:59;99700.81;;;-1.58;75.26
63500;BME280;49654;51.142;14.924;2024-03-08T03:57:25;99705.97;;;-1.59;75.49
63500;BME280;49654;51.142;14.924;2024-03-08T03:59:52;99697.19;;;-1.69;76.43
63500;BME280;49654;51.142;14.924;2024-03-08T04:02:21;99697.94;;;-1.99;76.36
63500;BME280;49654;51.142;14.924;2024-03-08T04:04:48;99690.06;;;-1.94;77.18
63500;BME280;49654;51.142;14.924;2024-03-08T04:07:14;99695.47;;;-1.69;76.08
63500;BME280;49654;51.142;14.924;2024-03-08T04:09:42;99692.00;;;-1.68;75.38
63500;BME280;49654;51.142;14.924;2024-03-08T04:12:09;99697.28;;;-1.87;76.06
63500;BME280;49654;51.142;14.924;2024-03-08T04:14:36;99692.75;;;-1.82;76.61
63500;BME280;49654;51.142;14.924;2024-03-08T04:17:03;99696.38;;;-1.70;76.40
63500;BME280;49654;51.142;14.924;2024-03-08T04:19:33;99686.25;;;-1.71;75.98
63500;BME280;49654;51.142;14.924;2024-03-08T04:22:00;99691.28;;;-1.86;76.26
63500;BME280;49654;51.142;14.924;2024-03-08T04:24:28;99694.81;;;-1.72;75.68
63500;BME280;49654;51.142;14.924;2024-03-08T04:26:56;99687.50;;;-1.79;75.79
63500;BME280;49654;51.142;14.924;2024-03-08T04:29:23;99688.91;;;-1.89;75.97
63500;BME280;49654;51.142;14.924;2024-03-08T04:31:50;99684.41;;;-1.99;76.35
63500;BME280;49654;51.142;14.924;2024-03-08T04:34:19;99684.16;;;-2.27;77.36
63500;BME280;49654;51.142;14.924;2024-03-08T04:36:48;99684.56;;;-2.03;77.51
63500;BME280;49654;51.142;14.924;2024-03-08T04:39:15;99669.84;;;-1.97;75.86
63500;BME280;49654;51.142;14.924;2024-03-08T04:41:44;99672.16;;;-1.93;75.94
63500;BME280;49654;51.142;14.924;2024-03-08T04:44:11;99677.25;;;-1.93;76.10
63500;BME280;49654;51.142;14.924;2024-03-08T04:46:39;99683.91;;;-1.90;76.62
63500;BME280;49654;51.142;14.924;2024-03-08T04:49:06;99678.41;;;-1.83;75.91
63500;BME280;49654;51.142;14.924;2024-03-08T04:51:34;99677.59;;;-1.83;75.54
63500;BME280;49654;51.142;14.924;2024-03-08T04:54:02;99673.31;;;-1.83;75.81
63500;BME280;49654;51.142;14.924;2024-03-08T04:56:30;99675.09;;;-1.69;75.01
63500;BME280;49654;51.142;14.924;2024-03-08T04:58:57;99682.00;;;-1.71;74.71
63500;BME280;49654;51.142;14.924;2024-03-08T05:01:24;99673.97;;;-1.79;75.07
63500;BME280;49654;51.142;14.924;2024-03-08T05:03:51;99653.59;;;-1.95;75.68
63500;BME280;49654;51.142;14.924;2024-03-08T05:06:21;99677.34;;;-1.79;76.05
63500;BME280;49654;51.142;14.924;2024-03-08T05:08:49;99677.84;;;-1.88;76.05
63500;BME280;49654;51.142;14.924;2024-03-08T05:11:17;99666.91;;;-1.90;76.76
63500;BME280;49654;51.142;14.924;2024-03-08T05:13:44;99677.50;;;-1.82;76.67
63500;BME280;49654;51.142;14.924;2024-03-08T05:16:11;99673.22;;;-1.81;77.25
63500;BME280;49654;51.142;14.924;2024-03-08T05:18:41;99673.63;;;-1.73;77.50
63500;BME280;49654;51.142;14.924;2024-03-08T05:21:08;99675.00;;;-1.67;77.65
63500;BME280;49654;51.142;14.924;2024-03-08T05:23:36;99668.84;;;-1.63;77.24
63500;BME280;49654;51.142;14.924;2024-03-08T05:26:04;99670.75;;;-1.67;77.03
63500;BME280;49654;51.142;14.924;2024-03-08T05:28:32;99674.75;;;-1.63;77.91
63500;BME280;49654;51.142;14.924;2024-03-08T05:30:59;99678.34;;;-1.51;76.48
63500;BME280;49654;51.142;14.924;2024-03-08T05:33:27;99671.78;;;-1.55;76.81
63500;BME280;49654;51.142;14.924;2024-03-08T05:35:54;99666.38;;;-1.49;76.71
63500;BME280;49654;51.142;14.924;2024-03-08T05:38:21;99667.09;;;-1.47;76.86
63500;BME280;49654;51.142;14.924;2024-03-08T05:40:48;99654.34;;;-1.47;76.07
63500;BME280;49654;51.142;14.924;2024-03-08T05:43:16;99673.22;;;-1.35;75.96
63500;BME280;49654;51.142;14.924;2024-03-08T05:45:46;99652.22;;;-1.55;76.37
63500;BME280;49654;51.142;14.924;2024-03-08T05:48:13;99669.47;;;-1.44;76.77
63500;BME280;49654;51.142;14.924;2024-03-08T05:50:40;99669.47;;;-1.44;76.89
63500;BME280;49654;51.142;14.924;2024-03-08T05:53:10;99663.72;;;-1.47;77.09
63500;BME280;49654;51.142;14.924;2024-03-08T05:55:36;99675.34;;;-1.58;77.58
63500;BME280;49654;51.142;14.924;2024-03-08T05:58:03;99628.72;;;-1.90;77.92
63500;BME280;49654;51.142;14.924;2024-03-08T06:00:33;99638.47;;;-1.66;78.33
63500;BME280;49654;51.142;14.924;2024-03-08T06:03:03;99661.78;;;-1.58;78.57
63500;BME280;49654;51.142;14.924;2024-03-08T06:05:30;99658.03;;;-1.37;78.24
63500;BME280;49654;51.142;14.924;2024-03-08T06:07:57;99661.16;;;-1.17;77.42
63500;BME280;49654;51.142;14.924;2024-03-08T06:10:24;99659.66;;;-1.06;76.86
63500;BME280;49654;51.142;14.924;2024-03-08T06:12:51;99659.66;;;-1.06;76.81
63500;BME280;49654;51.142;14.924;2024-03-08T06:15:18;99660.81;;;-1.11;77.56
63500;BME280;49654;51.142;14.924;2024-03-08T06:17:46;99661.38;;;-1.06;77.28
63500;BME280;49654;51.142;14.924;2024-03-08T06:20:15;99662.09;;;-1.04;77.20
63500;BME280;49654;51.142;14.924;2024-03-08T06:22:42;99623.31;;;-1.23;77.47
63500;BME280;49654;51.142;14.924;2024-03-08T06:25:11;99643.97;;;-0.99;77.56
63500;BME280;49654;51.142;14.924;2024-03-08T06:27:39;99656.09;;;-0.60;79.54
63500;BME280;49654;51.142;14.924;2024-03-08T06:30:08;99616.97;;;-1.02;79.19
63500;BME280;49654;51.142;14.924;2024-03-08T06:32:36;99644.44;;;-0.64;79.45
63500;BME280;49654;51.142;14.924;2024-03-08T06:35:04;99655.75;;;-0.40;78.44
63500;BME280;49654;51.142;14.924;2024-03-08T06:37:33;99643.16;;;-0.29;77.76
63500;BME280;49654;51.142;14.924;2024-03-08T06:40:00;99645.84;;;-0.17;77.07
63500;BME280;49654;51.142;14.924;2024-03-08T06:42:29;99602.16;;;-0.40;76.90
63500;BME280;49654;51.142;14.924;2024-03-08T06:44:59;99650.44;;;-0.22;77.12
63500;BME280;49654;51.142;14.924;2024-03-08T06:47:30;99655.19;;;-0.16;77.66
63500;BME280;49654;51.142;14.924;2024-03-08T06:49:57;99643.19;;;-0.02;78.33
63500;BME280;49654;51.142;14.924;2024-03-08T06:52:24;99649.44;;;0.07;78.76
63500;BME280;49654;51.142;14.924;2024-03-08T06:54:52;99650.03;;;0.25;78.68
63500;BME280;49654;51.142;14.924;2024-03-08T06:57:19;99642.69;;;0.33;78.72
63500;BME280;49654;51.142;14.924;2024-03-08T06:59:47;99640.59;;;0.40;78.64
63500;BME280;49654;51.142;14.924;2024-03-08T07:02:14;99642.66;;;0.47;78.91
63500;BME280;49654;51.142;14.924;2024-03-08T07:04:41;99646.47;;;0.67;79.02
63500;BME280;49654;51.142;14.924;2024-03-08T07:07:08;99630.44;;;0.78;79.07
63500;BME280;49654;51.142;14.924;2024-03-08T07:09:35;99642.94;;;0.95;78.76
63500;BME280;49654;51.142;14.924;2024-03-08T07:12:04;99641.59;;;1.15;78.35
63500;BME280;49654;51.142;14.924;2024-03-08T07:14:31;99629.50;;;1.30;78.64
63500;BME280;49654;51.142;14.924;2024-03-08T07:16:58;99585.22;;;1.04;78.00
63500;BME280;49654;51.142;14.924;2024-03-08T07:19:24;99626.03;;;1.31;78.62
63500;BME280;49654;51.142;14.924;2024-03-08T07:21:51;99635.53;;;1.42;79.15
63500;BME280;49654;51.142;14.924;2024-03-08T07:24:18;99636.84;;;1.47;79.52
63500;BME280;49654;51.142;14.924;2024-03-08T07:27:05;99637.13;;;1.68;78.87
63500;BME280;49654;51.142;14.924;2024-03-08T07:29:32;99633.47;;;1.84;78.85
63500;BME280;49654;51.142;14.924;2024-03-08T07:31:58;99615.97;;;1.90;78.09
63500;BME280;49654;51.142;14.924;2024-03-08T07:34:37;99630.56;;;2.01;77.76
63500;BME280;49654;51.142;14.924;2024-03-08T07:37:06;99627.44;;;2.09;78.11
63500;BME280;49654;51.142;14.924;2024-03-08T07:39:37;99625.78;;;2.20;78.77
63500;BME280;49654;51.142;14.924;2024-03-08T07:42:06;99628.59;;;2.29;78.25
63500;BME280;49654;51.142;14.924;2024-03-08T07:44:33;99606.69;;;2.24;78.25
63500;BME280;49654;51.142;14.924;2024-03-08T07:47:00;99630.81;;;2.57;78.49
63500;BME280;49654;51.142;14.924;2024-03-08T07:49:27;99621.16;;;2.72;78.32
63500;BME280;49654;51.142;14.924;2024-03-08T07:51:54;99613.13;;;2.76;78.62
63500;BME280;49654;51.142;14.924;2024-03-08T07:54:21;99630.31;;;2.98;78.39
63500;BME280;49654;51.142;14.924;2024-03-08T07:56:48;99626.94;;;3.09;77.76
63500;BME280;49654;51.142;14.924;2024-03-08T07:59:18;99579.34;;;2.94;77.64
63500;BME280;49654;51.142;14.924;2024-03-08T08:01:46;99589.59;;;3.16;76.91
63500;BME280;49654;51.142;14.924;2024-03-08T08:04:13;99619.81;;;3.58;75.94
63500;BME280;49654;51.142;14.924;2024-03-08T08:06:43;99619.41;;;3.85;74.57
63500;BME280;49654;51.142;14.924;2024-03-08T08:09:10;99613.22;;;3.98;74.26
63500;BME280;49654;51.142;14.924;2024-03-08T08:11:40;99617.03;;;4.04;74.06
63500;BME280;49654;51.142;14.924;2024-03-08T08:14:09;99606.84;;;4.14;73.47
63500;BME280;49654;51.142;14.924;2024-03-08T08:16:37;99619.31;;;4.18;73.86
63500;BME280;49654;51.142;14.924;2024-03-08T08:19:07;99607.94;;;4.32;74.02
63500;BME280;49654;51.142;14.924;2024-03-08T08:21:34;99596.16;;;4.30;73.50
63500;BME280;49654;51.142;14.924;2024-03-08T08:24:02;99595.19;;;4.63;72.68
63500;BME280;49654;51.142;14.924;2024-03-08T08:26:29;99605.81;;;4.79;71.78
63500;BME280;49654;51.142;14.924;2024-03-08T08:28:56;99590.56;;;4.87;71.29
63500;BME280;49654;51.142;14.924;2024-03-08T08:31:23;99593.53;;;4.83;71.40
63500;BME280;49654;51.142;14.924;2024-03-08T08:33:52;99595.31;;;4.92;71.08
63500;BME280;49654;51.142;14.924;2024-03-08T08:36:23;99588.94;;;5.17;71.07
63500;BME280;49654;51.142;14.924;2024-03-08T08:38:50;99592.31;;;5.17;70.32
63500;BME280;49654;51.142;14.924;2024-03-08T08:41:19;99590.78;;;5.36;68.69
63500;BME280;49654;51.142;14.924;2024-03-08T08:43:47;99590.31;;;5.61;67.94
63500;BME280;49654;51.142;14.924;2024-03-08T08:46:16;99592.78;;;5.82;68.01
63500;BME280;49654;51.142;14.924;2024-03-08T08:48:43;99580.84;;;5.81;67.17
63500;BME280;49654;51.142;14.924;2024-03-08T08:51:12;99575.69;;;5.91;67.23
63500;BME280;49654;51.142;14.924;2024-03-08T08:53:39;99581.16;;;6.07;66.73
63500;BME280;49654;51.142;14.924;2024-03-08T08:56:08;99565.50;;;6.67;67.50
63500;BME280;49654;51.142;14.924;2024-03-08T08:58:38;99576.69;;;7.60;60.94
63500;BME280;49654;51.142;14.924;2024-03-08T09:01:06;99537.78;;;8.85;59.17
63500;BME280;49654;51.142;14.924;2024-03-08T09:03:33;99559.72;;;10.40;54.44
63500;BME280;49654;51.142;14.924;2024-03-08T09:06:01;99547.31;;;11.31;49.61
63500;BME280;49654;51.142;14.924;2024-03-08T09:08:30;99504.91;;;12.60;45.81
63500;BME280;49654;51.142;14.924;2024-03-08T09:10:56;99551.75;;;13.63;44.05
63500;BME280;49654;51.142;14.924;2024-03-08T09:13:25;99552.31;;;14.23;41.78
63500;BME280;49654;51.142;14.924;2024-03-08T09:15:52;99547.13;;;14.51;41.05
63500;BME280;49654;51.142;14.924;2024-03-08T09:18:19;99528.22;;;14.84;39.83
63500;BME280;49654;51.142;14.924;2024-03-08T09:20:46;99541.09;;;15.26;39.03
63500;BME280;49654;51.142;14.924;2024-03-08T09:23:13;99541.34;;;15.38;37.75
63500;BME280;49654;51.142;14.924;2024-03-08T09:25:42;99542.41;;;15.57;38.39
63500;BME280;49654;51.142;14.924;2024-03-08T09:28:09;99535.38;;;15.10;37.04
63500;BME280;49654;51.142;14.924;2024-03-08T09:30:37;99537.44;;;14.80;38.94
63500;BME280;49654;51.142;14.924;2024-03-08T09:33:04;99533.38;;;14.70;38.49
63500;BME280;49654;51.142;14.924;2024-03-08T09:35:31;99538.91;;;14.89;37.45
63500;BME280;49654;51.142;14.924;2024-03-08T09:37:58;99530.16;;;14.47;38.13
63500;BME280;49654;51.142;14.924;2024-03-08T09:40:25;99531.22;;;14.81;39.40
63500;BME280;49654;51.142;14.924;2024-03-08T09:42:54;99515.59;;;14.59;38.78
63500;BME280;49654;51.142;14.924;2024-03-08T09:45:23;99525.13;;;15.08;39.79
63500;BME280;49654;51.142;14.924;2024-03-08T09:47:51;99517.13;;;14.82;38.77
63500;BME280;49654;51.142;14.924;2024-03-08T09:50:19;99519.31;;;13.94;39.93
63500;BME280;49654;51.142;14.924;2024-03-08T09:52:48;99529.50;;;14.10;40.51
63500;BME280;49654;51.142;14.924;2024-03-08T09:55:16;99529.13;;;14.13;39.94
63500;BME280;49654;51.142;14.924;2024-03-08T09:57:47;99514.56;;;13.61;40.71
63500;BME280;49654;51.142;14.924;2024-03-08T10:00:36;99525.81;;;12.51;42.66
63500;BME280;49654;51.142;14.924;2024-03-08T10:03:03;99516.56;;;11.65;43.88
63500;BME280;49654;51.142;14.924;2024-03-08T10:05:31;99508.56;;;10.65;47.18
63500;BME280;49654;51.142;14.924;2024-03-08T10:07:59;99529.53;;;10.31;48.26
63500;BME280;49654;51.142;14.924;2024-03-08T10:10:26;99522.41;;;10.25;49.56
63500;BME280;49654;51.142;14.924;2024-03-08T10:12:52;99498.06;;;9.69;48.50
63500;BME280;49654;51.142;14.924;2024-03-08T10:15:19;99522.00;;;8.96;49.97
63500;BME280;49654;51.142;14.924;2024-03-08T10:17:48;99513.44;;;9.12;49.96
63500;BME280;49654;51.142;14.924;2024-03-08T10:20:15;99416.41;;;8.90;49.48
63500;BME280;49654;51.142;14.924;2024-03-08T10:22:42;99511.84;;;9.86;51.19
63500;BME280;49654;51.142;14.924;2024-03-08T10:25:10;99503.22;;;9.61;48.53
63500;BME280;49654;51.142;14.924;2024-03-08T10:27:38;99499.34;;;9.57;48.32
63500;BME280;49654;51.142;14.924;2024-03-08T10:30:06;99504.06;;;9.69;50.50
63500;BME280;49654;51.142;14.924;2024-03-08T10:32:38;99501.63;;;9.76;47.88
63500;BME280;49654;51.142;14.924;2024-03-08T10:35:08;99502.44;;;9.85;50.06
63500;BME280;49654;51.142;14.924;2024-03-08T10:37:44;99499.84;;;9.76;47.11
63500;BME280;49654;51.142;14.924;2024-03-08T10:40:16;99502.38;;;9.36;47.75
63500;BME280;49654;51.142;14.924;2024-03-08T10:42:51;99499.38;;;9.14;50.25
63500;BME280;49654;51.142;14.924;2024-03-08T10:45:26;99444.59;;;8.59;49.08
63500;BME280;49654;51.142;14.924;2024-03-08T10:48:05;99493.94;;;9.25;47.98
63500;BME280;49654;51.142;14.924;2024-03-08T10:50:37;99502.38;;;9.44;49.43
63500;BME280;49654;51.142;14.924;2024-03-08T10:53:06;99489.16;;;9.88;48.09
63500;BME280;49654;51.142;14.924;2024-03-08T10:55:36;99489.28;;;9.53;47.92
63500;BME280;49654;51.142;14.924;2024-03-08T10:58:05;99446.94;;;9.28;47.96
63500;BME280;49654;51.142;14.924;2024-03-08T11:00:33;99493.84;;;9.84;48.86
63500;BME280;49654;51.142;14.924;2024-03-08T11:03:00;99478.28;;;9.84;49.11
63500;BME280;49654;51.142;14.924;2024-03-08T11:05:35;99495.63;;;10.08;47.95
63500;BME280;49654;51.142;14.924;2024-03-08T11:08:16;99481.69;;;9.93;49.40
63500;BME280;49654;51.142;14.924;2024-03-08T11:10:47;99443.44;;;9.78;47.16
63500;BME280;49654;51.142;14.924;2024-03-08T11:13:32;99488.16;;;10.05;47.77
63500;BME280;49654;51.142;14.924;2024-03-08T11:15:59;99485.88;;;10.43;48.71
63500;BME280;49654;51.142;14.924;2024-03-08T11:18:26;99462.59;;;10.74;48.01
63500;BME280;49654;51.142;14.924;2024-03-08T11:20:53;99476.97;;;10.93;47.27
63500;BME280;49654;51.142;14.924;2024-03-08T11:23:23;99483.84;;;10.77;46.92
63500;BME280;49654;51.142;14.924;2024-03-08T11:25:51;99476.34;;;10.83;48.07
63500;BME280;49654;51.142;14.924;2024-03-08T11:28:20;99475.53;;;10.82;47.86
63500;BME280;49654;51.142;14.924;2024-03-08T11:31:22;99464.72;;;11.10;47.64
63500;BME280;49654;51.142;14.924;2024-03-08T11:33:51;99455.63;;;11.37;48.26
63500;BME280;49654;51.142;14.924;2024-03-08T11:36:22;99462.47;;;11.61;48.12
63500;BME280;49654;51.142;14.924;2024-03-08T11:38:50;99454.22;;;11.72;46.31
63500;BME280;49654;51.142;14.924;2024-03-08T11:41:19;99453.72;;;11.53;44.66
63500;BME280;49654;51.142;14.924;2024-03-08T11:43:46;99445.56;;;11.34;47.51
63500;BME280;49654;51.142;14.924;2024-03-08T11:46:15;99434.00;;;11.59;47.21
63500;BME280;49654;51.142;14.924;2024-03-08T11:48:44;99397.16;;;11.33;46.10
63500;BME280;49654;51.142;14.924;2024-03-08T11:51:15;99432.44;;;11.96;44.73
63500;BME280;49654;51.142;14.924;2024-03-08T11:53:44;99431.03;;;12.23;44.97
63500;BME280;49654;51.142;14.924;2024-03-08T11:56:13;99434.00;;;12.79;45.92
63500;BME280;49654;51.142;14.924;2024-03-08T11:58:41;99409.69;;;13.72;42.34
63500;BME280;49654;51.142;14.924;2024-03-08T12:01:09;99412.72;;;14.67;39.85
63500;BME280;49654;51.142;14.924;2024-03-08T12:03:38;99403.47;;;15.59;39.84
63500;BME280;49654;51.142;14.924;2024-03-08T12:06:05;99406.28;;;15.57;38.69
63500;BME280;49654;51.142;14.924;2024-03-08T12:08:36;99412.00;;;14.93;39.69
63500;BME280;49654;51.142;14.924;2024-03-08T12:11:03;99402.22;;;15.28;39.71
63500;BME280;49654;51.142;14.924;2024-03-08T12:13:31;99399.84;;;15.33;39.12
63500;BME280;49654;51.142;14.924;2024-03-08T12:16:00;99397.81;;;15.35;38.03
63500;BME280;49654;51.142;14.924;2024-03-08T12:18:33;99394.16;;;15.10;37.97
63500;BME280;49654;51.142;14.924;2024-03-08T12:21:07;99394.38;;;15.21;38.92
63500;BME280;49654;51.142;14.924;2024-03-08T12:23:36;99390.38;;;15.39;38.31
63500;BME280;49654;51.142;14.924;2024-03-08T12:26:11;99389.81;;;15.90;38.22
63500;BME280;49654;51.142;14.924;2024-03-08T12:28:39;99383.72;;;17.12;38.02
63500;BME280;49654;51.142;14.924;2024-03-08T12:31:07;99379.34;;;17.06;37.84
63500;BME280;49654;51.142;14.924;2024-03-08T12:33:36;99383.53;;;17.95;35.82
63500;BME280;49654;51.142;14.924;2024-03-08T12:36:03;99368.66;;;19.23;34.60
63500;BME280;49654;51.142;14.924;2024-03-08T12:38:32;99367.69;;;20.06;33.09
63500;BME280;49654;51.142;14.924;2024-03-08T12:41:03;99354.41;;;20.65;30.66
63500;BME280;49654;51.142;14.924;2024-03-08T12:43:30;99364.69;;;20.66;30.96
63500;BME280;49654;51.142;14.924;2024-03-08T12:45:57;99362.28;;;21.39;29.63
63500;BME280;49654;51.142;14.924;2024-03-08T12:48:24;99356.03;;;21.45;29.57
63500;BME280;49654;51.142;14.924;2024-03-08T12:50:51;99348.50;;;21.37;28.70
63500;BME280;49654;51.142;14.924;2024-03-08T12:53:20;99359.09;;;22.75;27.57
63500;BME280;49654;51.142;14.924;2024-03-08T12:55:48;99319.03;;;22.00;28.55
63500;BME280;49654;51.142;14.924;2024-03-08T12:58:17;99342.44;;;22.53;27.79